Airport Name : La Crosse Muni

Other Name : La Crosse Muni

ICAO : KLSE

IATA : LSE

FAA : LSE

Latitude : 43.878986

Longitude : -91.256711

Country : United States

Local Date and Time : 15 Jul 2024 09:02

 

TAF (Terminal Aerodrome Forecast)

KLSE 151354Z 1514/1612 VRB03KT 1/2SM FG OVC002 FM151500 22005KT 6SM BR VCSH BKN070 FM151800 21007KT P6SM SCT200 FM152100 20007KT P6SM VCSH BKN080 FM160000 29005KT P6SM SCT140

 

METAR (METeorological Aerodrome Report)

KLSE 151353Z 26004KT 1/2SM FG OVC002 23/23 A2985 RMK AO2 SLP098 T02330228

KLSE 151331Z 00000KT 1/2SM FG OVC002 23/22 A2983 RMK AO2 T02330222

KLSE 151253Z 10004KT 1/4SM FG VV002 23/22 A2981 RMK AO2 SLP083 T02330222

KLSE 151232Z 17005KT 1/4SM FG VV002 23/22 A2982 RMK AO2 T02330222

KLSE 151153Z 20005KT M1/4SM FG VV002 23/22 A2982 RMK AO2 SLP086 T02280222 10233 20222 53000

KLSE 151053Z 16005KT M1/4SM FG VV002 23/22 A2981 RMK AO2 SLP084 T02280217

KLSE 151004Z AUTO 17003KT 1/4SM FG VV002 23/22 A2982 RMK AO2 T02280217